Arm, Mississippi
Current Conditions -  °F | °C
As of 12:53 PM on Monday 22 Dec 2014 (Local Time) from KMCB Reporting Station
Light Rain Light Rain  
Wind Chill: 64°   Ceiling: 600
Heat Index: 64°   Visibility: 5mi
Dew Point: 62°   Wind: 7mph
Humidity: 93%   Direction: 180°S
Pressure: 29.72"   Gusts: NA
Location:  31.5868°N, 90.03°W
Report Text: KMCB 221853Z AUTO 18006KT 5SM -RA BR OVC006 18/17 A2972 RMK AO2 RAB31 SLP062 P0000 T01780167
Loading
Personal Weather Stations






























Interactive Weather Map New forecast layout! Learn more

10-Day Weather Forecast

Advertisements
Track Severe Weather on mobile